PWSweather.com
Personal Weather Stations
Station Observations
KCOGRAND2
Redlands, Southcamp Road & Dakota Circle, Grand Junction, CO 81507

Redlands, Southcamp Road & Dakota CircleGrand Junction, CO 81507

Lat: 39.055, Lon: -108.637

Elevation: 4870

Station Type: RadioShack WX200

High Low Average
Temperature 35.4°F1.9°F 31.6°F-0.2°F 33.9°F1.1°F
Dew Point 34.2°F1.2°F 28.6°F-1.9°F 32.1°F0.1°F
Winds 5.0 mph S8.0 mph S Calm Calm 1.8 mph 2.9 mph
Wind Gusts 9.2 mph14.8 mph -- 3.9 mph6.3 mph
Humidity 97% 84% 93%
Pressure 25.13 in851.00 in 24.92 in843.90 in -
Precipitation 0.96 in24.40 in - -
Hour Temp Dew Point Humidity Winds Wind Gusts Pressure Precip Precip Rate Daily Precip Total
12:02 AM 34.3°F1.3°C 30.6°F-0.8°C 86% 2.0 mph S3.2 kmh S 4.0 mph6.4 kmh 25.13 in851.0 mb 0.00 in0.0 mm 0.00 in/hr0.0 mm/hr 0.00 in0.0 mm
12:07 AM 34.3°F1.3°C 30.4°F-0.9°C 85% 2.0 mph S3.2 kmh S 4.0 mph6.4 kmh 25.13 in851.0 mb 0.00 in0.0 mm 0.00 in/hr0.0 mm/hr 0.00 in0.0 mm
12:12 AM 34.3°F1.3°C 30.6°F-0.8°C 86% Calm Calm 2.7 mph4.3 kmh 25.13 in851.0 mb 0.00 in0.0 mm 0.00 in/hr0.0 mm/hr 0.00 in0.0 mm
12:17 AM 34.3°F1.3°C 30.6°F-0.8°C 86% 1.0 mph S1.6 kmh S 3.6 mph5.8 kmh 25.13 in851.0 mb 0.00 in0.0 mm 0.00 in/hr0.0 mm/hr 0.00 in0.0 mm
12:22 AM 34.3°F1.3°C 30.6°F-0.8°C 86% 2.0 mph S3.2 kmh S 3.6 mph5.8 kmh 25.13 in851.0 mb 0.00 in0.0 mm 0.00 in/hr0.0 mm/hr 0.00 in0.0 mm
12:27 AM 34.3°F1.3°C 30.6°F-0.8°C 86% 1.0 mph S1.6 kmh S 2.7 mph4.3 kmh 25.13 in851.0 mb 0.00 in0.0 mm 0.00 in/hr0.0 mm/hr 0.00 in0.0 mm
12:32 AM 34.3°F1.3°C 30.6°F-0.8°C 86% Calm Calm 3.1 mph5.0 kmh 25.13 in851.0 mb 0.00 in0.0 mm 0.00 in/hr0.0 mm/hr 0.00 in0.0 mm
12:37 AM 34.3°F1.3°C 30.6°F-0.8°C 86% Calm Calm 3.1 mph5.0 kmh 25.13 in851.0 mb 0.00 in0.0 mm 0.00 in/hr0.0 mm/hr 0.00 in0.0 mm
12:42 AM 34.3°F1.3°C 30.6°F-0.8°C 86% 1.0 mph S1.6 kmh S 3.1 mph5.0 kmh 25.13 in851.0 mb 0.00 in0.0 mm 0.00 in/hr0.0 mm/hr 0.00 in0.0 mm
12:47 AM 34.3°F1.3°C 30.6°F-0.8°C 86% Calm Calm 2.7 mph4.3 kmh 25.13 in851.0 mb 0.00 in0.0 mm 0.00 in/hr0.0 mm/hr 0.00 in0.0 mm
12:52 AM 34.3°F1.3°C 30.6°F-0.8°C 86% Calm Calm -- 25.13 in851.0 mb 0.00 in0.0 mm 0.00 in/hr0.0 mm/hr 0.00 in0.0 mm
12:57 AM 34.3°F1.3°C 30.6°F-0.8°C 86% Calm Calm -- 25.13 in851.0 mb 0.00 in0.0 mm 0.00 in/hr0.0 mm/hr 0.00 in0.0 mm
01:02 AM 34.3°F1.3°C 30.6°F-0.8°C 86% Calm Calm -- 25.13 in851.0 mb 0.00 in0.0 mm 0.00 in/hr0.0 mm/hr 0.00 in0.0 mm
01:07 AM 34.3°F1.3°C 30.6°F-0.8°C 86% Calm Calm 3.1 mph5.0 kmh 25.13 in851.0 mb 0.00 in0.0 mm 0.00 in/hr0.0 mm/hr 0.00 in0.0 mm
01:12 AM 34.5°F1.4°C 30.7°F-0.7°C 86% 1.0 mph S1.6 kmh S 2.7 mph4.3 kmh 25.13 in851.0 mb 0.00 in0.0 mm 0.00 in/hr0.0 mm/hr 0.00 in0.0 mm
01:17 AM 34.5°F1.4°C 30.7°F-0.7°C 86% 1.0 mph S1.6 kmh S 3.6 mph5.8 kmh 25.13 in851.0 mb 0.00 in0.0 mm 0.00 in/hr0.0 mm/hr 0.00 in0.0 mm
01:22 AM 34.5°F1.4°C 30.7°F-0.7°C 86% 2.0 mph S3.2 kmh S 4.0 mph6.4 kmh 25.13 in851.0 mb 0.00 in0.0 mm 0.00 in/hr0.0 mm/hr 0.00 in0.0 mm
01:27 AM 34.5°F1.4°C 30.7°F-0.7°C 86% 2.0 mph S3.2 kmh S 4.0 mph6.4 kmh 25.13 in851.0 mb 0.00 in0.0 mm 0.00 in/hr0.0 mm/hr 0.00 in0.0 mm
01:32 AM 34.5°F1.4°C 30.7°F-0.7°C 86% 3.0 mph S4.8 kmh S 4.0 mph6.4 kmh 25.13 in851.0 mb 0.00 in0.0 mm 0.00 in/hr0.0 mm/hr 0.00 in0.0 mm
01:37 AM 34.5°F1.4°C 30.7°F-0.7°C 86% 2.0 mph S3.2 kmh S 3.1 mph5.0 kmh 25.13 in851.0 mb 0.00 in0.0 mm 0.00 in/hr0.0 mm/hr 0.00 in0.0 mm
01:42 AM 34.7°F1.5°C 30.9°F-0.6°C 86% 2.0 mph S3.2 kmh S 3.1 mph5.0 kmh 25.13 in851.0 mb 0.00 in0.0 mm 0.00 in/hr0.0 mm/hr 0.00 in0.0 mm
01:47 AM 34.7°F1.5°C 30.9°F-0.6°C 86% 2.0 mph S3.2 kmh S 3.1 mph5.0 kmh 25.13 in851.0 mb 0.00 in0.0 mm 0.00 in/hr0.0 mm/hr 0.00 in0.0 mm
01:52 AM 34.7°F1.5°C 30.7°F-0.7°C 85% 2.0 mph S3.2 kmh S 3.1 mph5.0 kmh 25.13 in851.0 mb 0.00 in0.0 mm 0.00 in/hr0.0 mm/hr 0.00 in0.0 mm
01:57 AM 34.9°F1.6°C 30.9°F-0.6°C 85% 1.0 mph S1.6 kmh S 3.1 mph5.0 kmh 25.13 in851.0 mb 0.00 in0.0 mm 0.00 in/hr0.0 mm/hr 0.00 in0.0 mm
02:02 AM 34.9°F1.6°C 30.9°F-0.6°C 85% Calm Calm -- 25.13 in851.0 mb 0.00 in0.0 mm 0.00 in/hr0.0 mm/hr 0.00 in0.0 mm
02:07 AM 34.9°F1.6°C 30.9°F-0.6°C 85% Calm Calm -- 25.13 in851.0 mb 0.00 in0.0 mm 0.00 in/hr0.0 mm/hr 0.00 in0.0 mm
02:12 AM 34.7°F1.5°C 30.4°F-0.9°C 84% Calm Calm 2.7 mph4.3 kmh 25.13 in851.0 mb 0.00 in0.0 mm 0.00 in/hr0.0 mm/hr 0.00 in0.0 mm
02:17 AM 34.7°F1.5°C 30.4°F-0.9°C 84% 1.0 mph S1.6 kmh S 3.1 mph5.0 kmh 25.13 in851.0 mb 0.00 in0.0 mm 0.00 in/hr0.0 mm/hr 0.00 in0.0 mm
02:22 AM 34.5°F1.4°C 30.6°F-0.8°C 85% 2.0 mph S3.2 kmh S 4.0 mph6.4 kmh 25.13 in851.0 mb 0.00 in0.0 mm 0.00 in/hr0.0 mm/hr 0.00 in0.0 mm
02:27 AM 34.5°F1.4°C 30.6°F-0.8°C 85% 2.0 mph S3.2 kmh S 4.5 mph7.2 kmh 25.10 in850.0 mb 0.00 in0.0 mm 0.00 in/hr0.0 mm/hr 0.00 in0.0 mm
02:32 AM 34.5°F1.4°C 30.6°F-0.8°C 85% 4.0 mph S6.4 kmh S 5.8 mph9.3 kmh 25.10 in850.0 mb 0.00 in0.0 mm 0.00 in/hr0.0 mm/hr 0.00 in0.0 mm
02:37 AM 34.2°F1.2°C 30.2°F-1.0°C 85% 4.0 mph NNW6.4 kmh NNW 5.8 mph9.3 kmh 25.10 in850.0 mb 0.00 in0.0 mm 0.00 in/hr0.0 mm/hr 0.00 in0.0 mm
02:42 AM 34.0°F1.1°C 30.0°F-1.1°C 85% 4.0 mph N6.4 kmh N 6.3 mph10.1 kmh 25.10 in850.0 mb 0.00 in0.0 mm 0.00 in/hr0.0 mm/hr 0.00 in0.0 mm
02:47 AM 33.8°F1.0°C 29.8°F-1.2°C 85% 4.0 mph N6.4 kmh N 5.4 mph8.7 kmh 25.10 in850.0 mb 0.00 in0.0 mm 0.00 in/hr0.0 mm/hr 0.00 in0.0 mm
02:52 AM 33.6°F0.9°C 29.7°F-1.3°C 85% 3.0 mph N4.8 kmh N 4.0 mph6.4 kmh 25.10 in850.0 mb 0.00 in0.0 mm 0.00 in/hr0.0 mm/hr 0.00 in0.0 mm
02:57 AM 33.4°F0.8°C 29.5°F-1.4°C 85% 2.0 mph 3.2 kmh 3.6 mph5.8 kmh 25.10 in850.0 mb 0.00 in0.0 mm 0.00 in/hr0.0 mm/hr 0.00 in0.0 mm
03:02 AM 33.6°F0.9°C 29.8°F-1.2°C 86% 2.0 mph 3.2 kmh 3.1 mph5.0 kmh 25.10 in850.0 mb 0.00 in0.0 mm 0.00 in/hr0.0 mm/hr 0.00 in0.0 mm
03:07 AM 33.6°F0.9°C 29.8°F-1.2°C 86% 2.0 mph 3.2 kmh 3.1 mph5.0 kmh 25.10 in850.0 mb 0.00 in0.0 mm 0.00 in/hr0.0 mm/hr 0.00 in0.0 mm
03:12 AM 33.3°F0.7°C 29.5°F-1.4°C 86% 1.0 mph N1.6 kmh N 4.9 mph7.9 kmh 25.10 in850.0 mb 0.00 in0.0 mm 0.00 in/hr0.0 mm/hr 0.00 in0.0 mm
03:17 AM 33.3°F0.7°C 29.5°F-1.4°C 86% 1.0 mph N1.6 kmh N 4.5 mph7.2 kmh 25.10 in850.0 mb 0.00 in0.0 mm 0.00 in/hr0.0 mm/hr 0.00 in0.0 mm
03:22 AM 33.1°F0.6°C 29.3°F-1.5°C 86% Calm Calm 3.1 mph5.0 kmh 25.10 in850.0 mb 0.00 in0.0 mm 0.00 in/hr0.0 mm/hr 0.00 in0.0 mm
03:27 AM 32.7°F0.4°C 29.3°F-1.5°C 87% 1.0 mph N1.6 kmh N 4.0 mph6.4 kmh 25.10 in850.0 mb 0.00 in0.0 mm 0.00 in/hr0.0 mm/hr 0.00 in0.0 mm
03:32 AM 32.4°F0.2°C 28.9°F-1.7°C 87% 2.0 mph N3.2 kmh N 3.6 mph5.8 kmh 25.10 in850.0 mb 0.00 in0.0 mm 0.00 in/hr0.0 mm/hr 0.00 in0.0 mm
03:37 AM 32.0°F0.0°C 28.6°F-1.9°C 87% 1.0 mph N1.6 kmh N 2.7 mph4.3 kmh 25.10 in850.0 mb 0.00 in0.0 mm 0.00 in/hr0.0 mm/hr 0.00 in0.0 mm
03:42 AM 32.0°F0.0°C 28.6°F-1.9°C 87% Calm Calm -- 25.07 in849.0 mb 0.00 in0.0 mm 0.00 in/hr0.0 mm/hr 0.00 in0.0 mm
03:47 AM 31.8°F-0.1°C 28.8°F-1.8°C 88% Calm Calm -- 25.07 in849.0 mb 0.00 in0.0 mm 0.00 in/hr0.0 mm/hr 0.00 in0.0 mm
03:52 AM 31.8°F-0.1°C 28.8°F-1.8°C 88% Calm Calm -- 25.07 in849.0 mb 0.00 in0.0 mm 0.00 in/hr0.0 mm/hr 0.00 in0.0 mm
03:57 AM 32.0°F0.0°C 29.1°F-1.6°C 89% Calm Calm 3.1 mph5.0 kmh 25.07 in849.0 mb 0.00 in0.0 mm 0.00 in/hr0.0 mm/hr 0.00 in0.0 mm
04:02 AM 31.6°F-0.2°C 28.8°F-1.8°C 89% 2.0 mph N3.2 kmh N 4.9 mph7.9 kmh 25.07 in849.0 mb 0.00 in0.0 mm 0.00 in/hr0.0 mm/hr 0.00 in0.0 mm
04:07 AM 32.4°F0.2°C 29.8°F-1.2°C 90% 3.0 mph NNW4.8 kmh NNW 4.9 mph7.9 kmh 25.07 in849.0 mb 0.00 in0.0 mm 0.00 in/hr0.0 mm/hr 0.00 in0.0 mm
04:12 AM 32.7°F0.4°C 30.2°F-1.0°C 90% 4.0 mph NNW6.4 kmh NNW 4.9 mph7.9 kmh 25.10 in850.0 mb 0.00 in0.0 mm 0.00 in/hr0.0 mm/hr 0.00 in0.0 mm
04:17 AM 32.4°F0.2°C 29.8°F-1.2°C 90% 3.0 mph NNW4.8 kmh NNW 4.0 mph6.4 kmh 25.10 in850.0 mb 0.00 in0.0 mm 0.00 in/hr0.0 mm/hr 0.00 in0.0 mm
04:22 AM 32.0°F0.0°C 29.5°F-1.4°C 90% 2.0 mph NNW3.2 kmh NNW 4.0 mph6.4 kmh 25.10 in850.0 mb 0.00 in0.0 mm 0.00 in/hr0.0 mm/hr 0.00 in0.0 mm
04:27 AM 32.2°F0.1°C 29.7°F-1.3°C 90% 2.0 mph 3.2 kmh 4.5 mph7.2 kmh 25.04 in848.0 mb 0.00 in0.0 mm 0.00 in/hr0.0 mm/hr 0.00 in0.0 mm
04:32 AM 32.4°F0.2°C 30.0°F-1.1°C 91% 1.0 mph NNE1.6 kmh NNE 3.1 mph5.0 kmh 25.04 in848.0 mb 0.00 in0.0 mm 0.00 in/hr0.0 mm/hr 0.00 in0.0 mm
04:37 AM 32.7°F0.4°C 30.2°F-1.0°C 90% 2.0 mph NNE3.2 kmh NNE 5.4 mph8.7 kmh 25.04 in848.0 mb 0.00 in0.0 mm 0.00 in/hr0.0 mm/hr 0.00 in0.0 mm
04:42 AM 33.1°F0.6°C 30.6°F-0.8°C 90% 3.0 mph NNE4.8 kmh NNE 4.0 mph6.4 kmh 25.04 in848.0 mb 0.00 in0.0 mm 0.00 in/hr0.0 mm/hr 0.00 in0.0 mm
04:47 AM 33.1°F0.6°C 30.2°F-1.0°C 89% 2.0 mph NNE3.2 kmh NNE 3.6 mph5.8 kmh 25.04 in848.0 mb 0.00 in0.0 mm 0.00 in/hr0.0 mm/hr 0.00 in0.0 mm
04:52 AM 33.3°F0.7°C 30.4°F-0.9°C 89% Calm Calm 4.5 mph7.2 kmh 25.04 in848.0 mb 0.00 in0.0 mm 0.00 in/hr0.0 mm/hr 0.00 in0.0 mm
04:57 AM 33.4°F0.8°C 30.2°F-1.0°C 88% 1.0 mph N1.6 kmh N 4.0 mph6.4 kmh 25.07 in849.0 mb 0.00 in0.0 mm 0.00 in/hr0.0 mm/hr 0.00 in0.0 mm
05:02 AM 33.6°F0.9°C 30.4°F-0.9°C 88% 2.0 mph N3.2 kmh N 3.6 mph5.8 kmh 25.07 in849.0 mb 0.00 in0.0 mm 0.00 in/hr0.0 mm/hr 0.00 in0.0 mm
05:07 AM 33.6°F0.9°C 30.4°F-0.9°C 88% 2.0 mph N3.2 kmh N 4.0 mph6.4 kmh 25.07 in849.0 mb 0.00 in0.0 mm 0.00 in/hr0.0 mm/hr 0.00 in0.0 mm
05:12 AM 33.4°F0.8°C 30.0°F-1.1°C 87% 2.0 mph N3.2 kmh N 3.1 mph5.0 kmh 25.07 in849.0 mb 0.00 in0.0 mm 0.00 in/hr0.0 mm/hr 0.00 in0.0 mm
05:17 AM 33.1°F0.6°C 29.7°F-1.3°C 87% 2.0 mph NNE3.2 kmh NNE 7.8 mph12.6 kmh 25.07 in849.0 mb 0.00 in0.0 mm 0.00 in/hr0.0 mm/hr 0.00 in0.0 mm
05:22 AM 33.1°F0.6°C 29.8°F-1.2°C 88% 5.0 mph S8.0 kmh S 6.7 mph10.8 kmh 25.07 in849.0 mb 0.00 in0.0 mm 0.00 in/hr0.0 mm/hr 0.00 in0.0 mm
05:27 AM 32.9°F0.5°C 30.0°F-1.1°C 89% 4.0 mph S6.4 kmh S 5.4 mph8.7 kmh 25.07 in849.0 mb 0.00 in0.0 mm 0.00 in/hr0.0 mm/hr 0.00 in0.0 mm
05:32 AM 32.9°F0.5°C 30.0°F-1.1°C 89% 3.0 mph S4.8 kmh S 4.5 mph7.2 kmh 25.07 in849.0 mb 0.00 in0.0 mm 0.00 in/hr0.0 mm/hr 0.00 in0.0 mm
05:37 AM 32.7°F0.4°C 29.8°F-1.2°C 89% 2.0 mph S3.2 kmh S 3.6 mph5.8 kmh 25.07 in849.0 mb 0.00 in0.0 mm 0.00 in/hr0.0 mm/hr 0.00 in0.0 mm
05:42 AM 32.7°F0.4°C 29.8°F-1.2°C 89% 1.0 mph S1.6 kmh S 3.6 mph5.8 kmh 25.04 in848.0 mb 0.00 in0.0 mm 0.00 in/hr0.0 mm/hr 0.00 in0.0 mm
05:47 AM 32.7°F0.4°C 29.8°F-1.2°C 89% 1.0 mph S1.6 kmh S 3.6 mph5.8 kmh 25.04 in848.0 mb 0.00 in0.0 mm 0.00 in/hr0.0 mm/hr 0.00 in0.0 mm
05:52 AM 32.5°F0.3°C 30.0°F-1.1°C 90% 1.0 mph S1.6 kmh S 3.6 mph5.8 kmh 25.04 in848.0 mb 0.00 in0.0 mm 0.00 in/hr0.0 mm/hr 0.00 in0.0 mm
05:57 AM 32.5°F0.3°C 30.0°F-1.1°C 90% 2.0 mph S3.2 kmh S 4.9 mph7.9 kmh 25.07 in849.0 mb 0.00 in0.0 mm 0.00 in/hr0.0 mm/hr 0.00 in0.0 mm
06:02 AM 32.4°F0.2°C 29.8°F-1.2°C 90% 3.0 mph S4.8 kmh S 3.6 mph5.8 kmh 25.07 in849.0 mb 0.00 in0.0 mm 0.00 in/hr0.0 mm/hr 0.00 in0.0 mm
06:07 AM 32.5°F0.3°C 30.2°F-1.0°C 91% 3.0 mph S4.8 kmh S 4.0 mph6.4 kmh 25.07 in849.0 mb 0.00 in0.0 mm 0.00 in/hr0.0 mm/hr 0.00 in0.0 mm
06:12 AM 32.4°F0.2°C 30.0°F-1.1°C 91% 3.0 mph S4.8 kmh S 4.5 mph7.2 kmh 25.07 in849.0 mb 0.00 in0.0 mm 0.00 in/hr0.0 mm/hr 0.00 in0.0 mm
06:17 AM 32.5°F0.3°C 30.2°F-1.0°C 91% 3.0 mph S4.8 kmh S 4.0 mph6.4 kmh 25.07 in849.0 mb 0.00 in0.0 mm 0.00 in/hr0.0 mm/hr 0.00 in0.0 mm
06:22 AM 32.5°F0.3°C 30.6°F-0.8°C 92% 2.0 mph S3.2 kmh S 4.0 mph6.4 kmh 25.07 in849.0 mb 0.00 in0.0 mm 0.00 in/hr0.0 mm/hr 0.00 in0.0 mm
06:27 AM 32.5°F0.3°C 30.6°F-0.8°C 92% 2.0 mph S3.2 kmh S 4.0 mph6.4 kmh 25.07 in849.0 mb 0.00 in0.0 mm 0.00 in/hr0.0 mm/hr 0.00 in0.0 mm
06:32 AM 32.5°F0.3°C 30.6°F-0.8°C 92% 1.0 mph S1.6 kmh S 3.1 mph5.0 kmh 25.07 in849.0 mb 0.00 in0.0 mm 0.00 in/hr0.0 mm/hr 0.00 in0.0 mm
06:38 AM 32.5°F0.3°C 30.6°F-0.8°C 92% 1.0 mph S1.6 kmh S 3.1 mph5.0 kmh 25.07 in849.0 mb 0.00 in0.0 mm 0.00 in/hr0.0 mm/hr 0.00 in0.0 mm
06:43 AM 32.7°F0.4°C 30.9°F-0.6°C 93% 2.0 mph S3.2 kmh S 3.6 mph5.8 kmh 25.07 in849.0 mb 0.00 in0.0 mm 0.00 in/hr0.0 mm/hr 0.00 in0.0 mm
06:48 AM 32.7°F0.4°C 30.9°F-0.6°C 93% 1.0 mph S1.6 kmh S 3.1 mph5.0 kmh 25.07 in849.0 mb 0.00 in0.0 mm 0.00 in/hr0.0 mm/hr 0.00 in0.0 mm
06:53 AM 32.7°F0.4°C 30.9°F-0.6°C 93% Calm Calm -- 25.07 in849.0 mb 0.00 in0.0 mm 0.00 in/hr0.0 mm/hr 0.00 in0.0 mm
06:58 AM 32.7°F0.4°C 30.9°F-0.6°C 93% Calm Calm -- 25.07 in849.0 mb 0.00 in0.0 mm 0.00 in/hr0.0 mm/hr 0.00 in0.0 mm
07:03 AM 32.9°F0.5°C 31.1°F-0.5°C 93% 1.0 mph S1.6 kmh S 3.6 mph5.8 kmh 25.07 in849.0 mb 0.00 in0.0 mm 0.00 in/hr0.0 mm/hr 0.00 in0.0 mm
07:08 AM 32.9°F0.5°C 31.1°F-0.5°C 93% 1.0 mph S1.6 kmh S 3.6 mph5.8 kmh 25.07 in849.0 mb 0.00 in0.0 mm 0.00 in/hr0.0 mm/hr 0.00 in0.0 mm
07:13 AM 32.7°F0.4°C 30.9°F-0.6°C 93% Calm Calm 2.7 mph4.3 kmh 25.07 in849.0 mb 0.00 in0.0 mm 0.00 in/hr0.0 mm/hr 0.00 in0.0 mm
07:18 AM 32.7°F0.4°C 31.1°F-0.5°C 94% Calm Calm -- 25.07 in849.0 mb 0.00 in0.0 mm 0.00 in/hr0.0 mm/hr 0.00 in0.0 mm
07:23 AM 32.9°F0.5°C 31.3°F-0.4°C 94% Calm Calm 3.6 mph5.8 kmh 25.07 in849.0 mb 0.00 in0.0 mm 0.00 in/hr0.0 mm/hr 0.00 in0.0 mm
07:28 AM 32.9°F0.5°C 31.1°F-0.5°C 93% 2.0 mph S3.2 kmh S 4.0 mph6.4 kmh 25.04 in848.0 mb 0.00 in0.0 mm 0.00 in/hr0.0 mm/hr 0.00 in0.0 mm
07:33 AM 32.9°F0.5°C 31.3°F-0.4°C 94% 2.0 mph S3.2 kmh S 3.6 mph5.8 kmh 25.04 in848.0 mb 0.00 in0.0 mm 0.00 in/hr0.0 mm/hr 0.00 in0.0 mm
07:38 AM 32.9°F0.5°C 31.3°F-0.4°C 94% 1.0 mph S1.6 kmh S 2.7 mph4.3 kmh 25.04 in848.0 mb 0.00 in0.0 mm 0.00 in/hr0.0 mm/hr 0.00 in0.0 mm
07:43 AM 32.9°F0.5°C 31.3°F-0.4°C 94% 1.0 mph S1.6 kmh S 4.0 mph6.4 kmh 25.04 in848.0 mb 0.00 in0.0 mm 0.00 in/hr0.0 mm/hr 0.00 in0.0 mm
07:48 AM 32.7°F0.4°C 31.1°F-0.5°C 94% 2.0 mph S3.2 kmh S 3.6 mph5.8 kmh 25.04 in848.0 mb 0.00 in0.0 mm 0.00 in/hr0.0 mm/hr 0.00 in0.0 mm
07:53 AM 32.9°F0.5°C 31.3°F-0.4°C 94% Calm Calm 2.7 mph4.3 kmh 25.04 in848.0 mb 0.00 in0.0 mm 0.00 in/hr0.0 mm/hr 0.00 in0.0 mm
07:58 AM 32.9°F0.5°C 31.3°F-0.4°C 94% 1.0 mph S1.6 kmh S 3.1 mph5.0 kmh 25.04 in848.0 mb 0.00 in0.0 mm 0.00 in/hr0.0 mm/hr 0.00 in0.0 mm
08:03 AM 33.1°F0.6°C 31.5°F-0.3°C 94% 2.0 mph S3.2 kmh S 3.6 mph5.8 kmh 25.04 in848.0 mb 0.00 in0.0 mm 0.00 in/hr0.0 mm/hr 0.00 in0.0 mm
08:08 AM 33.1°F0.6°C 31.8°F-0.1°C 95% 1.0 mph S1.6 kmh S 3.1 mph5.0 kmh 25.04 in848.0 mb 0.00 in0.0 mm 0.00 in/hr0.0 mm/hr 0.00 in0.0 mm
08:13 AM 33.1°F0.6°C 31.8°F-0.1°C 95% 1.0 mph S1.6 kmh S 3.1 mph5.0 kmh 25.01 in846.9 mb 0.00 in0.0 mm 0.00 in/hr0.0 mm/hr 0.00 in0.0 mm
08:18 AM 33.1°F0.6°C 31.8°F-0.1°C 95% 2.0 mph S3.2 kmh S 4.5 mph7.2 kmh 25.01 in846.9 mb 0.00 in0.0 mm 0.00 in/hr0.0 mm/hr 0.00 in0.0 mm
08:23 AM 33.3°F0.7°C 32.0°F0.0°C 95% 4.0 mph S6.4 kmh S 6.7 mph10.8 kmh 25.01 in846.9 mb 0.00 in0.0 mm 0.00 in/hr0.0 mm/hr 0.00 in0.0 mm
08:28 AM 33.1°F0.6°C 32.0°F0.0°C 96% 5.0 mph SSW8.0 kmh SSW 6.9 mph11.1 kmh 25.04 in848.0 mb 0.00 in0.0 mm 0.00 in/hr0.0 mm/hr 0.00 in0.0 mm
08:33 AM 33.1°F0.6°C 32.0°F0.0°C 96% 5.0 mph S8.0 kmh S 6.9 mph11.1 kmh 25.04 in848.0 mb 0.00 in0.0 mm 0.00 in/hr0.0 mm/hr 0.00 in0.0 mm
08:38 AM 33.1°F0.6°C 32.0°F0.0°C 96% 5.0 mph S8.0 kmh S 7.4 mph11.9 kmh 25.04 in848.0 mb 0.00 in0.0 mm 0.00 in/hr0.0 mm/hr 0.00 in0.0 mm
08:43 AM 33.1°F0.6°C 32.0°F0.0°C 96% 5.0 mph S8.0 kmh S 6.9 mph11.1 kmh 25.10 in850.0 mb 0.00 in0.0 mm 0.00 in/hr0.0 mm/hr 0.00 in0.0 mm
08:48 AM 33.1°F0.6°C 32.0°F0.0°C 96% 4.0 mph S6.4 kmh S 5.8 mph9.3 kmh 25.10 in850.0 mb 0.00 in0.0 mm 0.00 in/hr0.0 mm/hr 0.00 in0.0 mm
08:53 AM 33.1°F0.6°C 32.0°F0.0°C 96% 3.0 mph S4.8 kmh S 4.0 mph6.4 kmh 25.10 in850.0 mb 0.00 in0.0 mm 0.00 in/hr0.0 mm/hr 0.00 in0.0 mm
08:58 AM 33.1°F0.6°C 32.0°F0.0°C 96% 2.0 mph S3.2 kmh S 3.6 mph5.8 kmh 25.07 in849.0 mb 0.00 in0.0 mm 0.00 in/hr0.0 mm/hr 0.00 in0.0 mm
09:03 AM 33.3°F0.7°C 32.2°F0.1°C 96% 2.0 mph S3.2 kmh S 4.0 mph6.4 kmh 25.07 in849.0 mb 0.00 in0.0 mm 0.00 in/hr0.0 mm/hr 0.00 in0.0 mm
09:08 AM 33.3°F0.7°C 32.2°F0.1°C 96% 2.0 mph S3.2 kmh S 3.6 mph5.8 kmh 25.07 in849.0 mb 0.00 in0.0 mm 0.00 in/hr0.0 mm/hr 0.00 in0.0 mm
09:13 AM 33.1°F0.6°C 32.0°F0.0°C 96% Calm Calm -- 25.07 in849.0 mb 0.00 in0.0 mm 0.00 in/hr0.0 mm/hr 0.00 in0.0 mm
09:18 AM 33.1°F0.6°C 32.0°F0.0°C 96% Calm Calm 2.7 mph4.3 kmh 25.07 in849.0 mb 0.00 in0.0 mm 0.00 in/hr0.0 mm/hr 0.00 in0.0 mm
09:23 AM 32.9°F0.5°C 31.8°F-0.1°C 96% 1.0 mph S1.6 kmh S 4.0 mph6.4 kmh 25.07 in849.0 mb 0.00 in0.0 mm 0.00 in/hr0.0 mm/hr 0.00 in0.0 mm
09:28 AM 32.9°F0.5°C 31.8°F-0.1°C 96% 3.0 mph SW4.8 kmh SW 4.5 mph7.2 kmh 25.07 in849.0 mb 0.00 in0.0 mm 0.00 in/hr0.0 mm/hr 0.00 in0.0 mm
09:33 AM 32.7°F0.4°C 31.6°F-0.2°C 96% 3.0 mph WSW4.8 kmh WSW 4.0 mph6.4 kmh 25.07 in849.0 mb 0.00 in0.0 mm 0.00 in/hr0.0 mm/hr 0.00 in0.0 mm
09:38 AM 32.7°F0.4°C 31.6°F-0.2°C 96% 3.0 mph W4.8 kmh W 4.5 mph7.2 kmh 25.07 in849.0 mb 0.00 in0.0 mm 0.00 in/hr0.0 mm/hr 0.00 in0.0 mm
09:43 AM 32.9°F0.5°C 31.8°F-0.1°C 96% 3.0 mph W4.8 kmh W 4.5 mph7.2 kmh 25.04 in848.0 mb 0.00 in0.0 mm 0.00 in/hr0.0 mm/hr 0.00 in0.0 mm
09:48 AM 32.9°F0.5°C 31.6°F-0.2°C 95% 3.0 mph NW4.8 kmh NW 4.9 mph7.9 kmh 25.04 in848.0 mb 0.00 in0.0 mm 0.00 in/hr0.0 mm/hr 0.00 in0.0 mm
09:53 AM 32.9°F0.5°C 31.6°F-0.2°C 95% 2.0 mph 3.2 kmh 4.9 mph7.9 kmh 25.04 in848.0 mb 0.00 in0.0 mm 0.00 in/hr0.0 mm/hr 0.00 in0.0 mm
09:58 AM 33.1°F0.6°C 32.0°F0.0°C 96% 1.0 mph N1.6 kmh N 3.1 mph5.0 kmh 25.04 in848.0 mb 0.00 in0.0 mm 0.00 in/hr0.0 mm/hr 0.00 in0.0 mm
10:03 AM 33.1°F0.6°C 32.0°F0.0°C 96% 2.0 mph N3.2 kmh N 5.8 mph9.3 kmh 25.04 in848.0 mb 0.00 in0.0 mm 0.00 in/hr0.0 mm/hr 0.00 in0.0 mm
10:08 AM 32.9°F0.5°C 31.8°F-0.1°C 96% 3.0 mph N4.8 kmh N 6.3 mph10.1 kmh 25.04 in848.0 mb 0.00 in0.0 mm 0.00 in/hr0.0 mm/hr 0.00 in0.0 mm
10:13 AM 33.1°F0.6°C 32.0°F0.0°C 96% 2.0 mph N3.2 kmh N 3.1 mph5.0 kmh 25.04 in848.0 mb 0.00 in0.0 mm 0.00 in/hr0.0 mm/hr 0.00 in0.0 mm
10:18 AM 33.1°F0.6°C 32.0°F0.0°C 96% 1.0 mph NNW1.6 kmh NNW 4.5 mph7.2 kmh 25.04 in848.0 mb 0.00 in0.0 mm 0.00 in/hr0.0 mm/hr 0.00 in0.0 mm
10:23 AM 33.1°F0.6°C 32.0°F0.0°C 96% 1.0 mph NNW1.6 kmh NNW 4.5 mph7.2 kmh 25.04 in848.0 mb 0.00 in0.0 mm 0.00 in/hr0.0 mm/hr 0.00 in0.0 mm
10:28 AM 33.3°F0.7°C 32.2°F0.1°C 96% 2.0 mph NNW3.2 kmh NNW 4.5 mph7.2 kmh 25.07 in849.0 mb 0.00 in0.0 mm 0.00 in/hr0.0 mm/hr 0.00 in0.0 mm
10:33 AM 33.3°F0.7°C 32.5°F0.3°C 97% 2.0 mph NNW3.2 kmh NNW 4.5 mph7.2 kmh 25.07 in849.0 mb 0.00 in0.0 mm 0.00 in/hr0.0 mm/hr 0.00 in0.0 mm
10:38 AM 33.4°F0.8°C 32.7°F0.4°C 97% 2.0 mph NNW3.2 kmh NNW 3.6 mph5.8 kmh 25.07 in849.0 mb 0.00 in0.0 mm 0.00 in/hr0.0 mm/hr 0.00 in0.0 mm
10:43 AM 33.4°F0.8°C 32.7°F0.4°C 97% 3.0 mph NNW4.8 kmh NNW 5.4 mph8.7 kmh 25.04 in848.0 mb 0.00 in0.0 mm 0.00 in/hr0.0 mm/hr 0.00 in0.0 mm
10:48 AM 33.3°F0.7°C 32.5°F0.3°C 97% 4.0 mph NW6.4 kmh NW 6.3 mph10.1 kmh 25.04 in848.0 mb 0.00 in0.0 mm 0.00 in/hr0.0 mm/hr 0.00 in0.0 mm
10:53 AM 33.3°F0.7°C 32.5°F0.3°C 97% 4.0 mph W6.4 kmh W 6.3 mph10.1 kmh 25.04 in848.0 mb 0.00 in0.0 mm 0.00 in/hr0.0 mm/hr 0.00 in0.0 mm
10:58 AM 33.1°F0.6°C 32.4°F0.2°C 97% 4.0 mph S6.4 kmh S 5.4 mph8.7 kmh 25.04 in848.0 mb 0.00 in0.0 mm 0.00 in/hr0.0 mm/hr 0.00 in0.0 mm
11:03 AM 33.3°F0.7°C 32.5°F0.3°C 97% 2.0 mph S3.2 kmh S 4.9 mph7.9 kmh 25.04 in848.0 mb 0.00 in0.0 mm 0.00 in/hr0.0 mm/hr 0.00 in0.0 mm
11:08 AM 33.4°F0.8°C 32.7°F0.4°C 97% Calm Calm 3.1 mph5.0 kmh 25.04 in848.0 mb 0.00 in0.0 mm 0.00 in/hr0.0 mm/hr 0.00 in0.0 mm
11:13 AM 33.4°F0.8°C 32.7°F0.4°C 97% Calm Calm 3.1 mph5.0 kmh 25.04 in848.0 mb 0.00 in0.0 mm 0.00 in/hr0.0 mm/hr 0.00 in0.0 mm
11:18 AM 33.4°F0.8°C 32.7°F0.4°C 97% Calm Calm 3.1 mph5.0 kmh 25.04 in848.0 mb 0.00 in0.0 mm 0.00 in/hr0.0 mm/hr 0.00 in0.0 mm
11:23 AM 33.4°F0.8°C 32.7°F0.4°C 97% 1.0 mph S1.6 kmh S 3.6 mph5.8 kmh 25.04 in848.0 mb 0.00 in0.0 mm 0.00 in/hr0.0 mm/hr 0.00 in0.0 mm
11:28 AM 33.4°F0.8°C 32.7°F0.4°C 97% 2.0 mph S3.2 kmh S 4.5 mph7.2 kmh 25.04 in848.0 mb 0.00 in0.0 mm 0.00 in/hr0.0 mm/hr 0.00 in0.0 mm
11:33 AM 33.6°F0.9°C 32.9°F0.5°C 97% 3.0 mph S4.8 kmh S 4.9 mph7.9 kmh 25.04 in848.0 mb 0.00 in0.0 mm 0.00 in/hr0.0 mm/hr 0.00 in0.0 mm
11:38 AM 33.4°F0.8°C 32.7°F0.4°C 97% 3.0 mph SSW4.8 kmh SSW 4.9 mph7.9 kmh 25.04 in848.0 mb 0.00 in0.0 mm 0.00 in/hr0.0 mm/hr 0.00 in0.0 mm
11:43 AM 33.8°F1.0°C 33.1°F0.6°C 97% 2.0 mph SW3.2 kmh SW 3.6 mph5.8 kmh 25.04 in848.0 mb 0.00 in0.0 mm 0.00 in/hr0.0 mm/hr 0.00 in0.0 mm
11:48 AM 33.8°F1.0°C 33.1°F0.6°C 97% 2.0 mph SW3.2 kmh SW 4.0 mph6.4 kmh 25.04 in848.0 mb 0.00 in0.0 mm 0.00 in/hr0.0 mm/hr 0.00 in0.0 mm
11:53 AM 33.8°F1.0°C 33.1°F0.6°C 97% 3.0 mph SW4.8 kmh SW 5.4 mph8.7 kmh 25.04 in848.0 mb 0.00 in0.0 mm 0.00 in/hr0.0 mm/hr 0.00 in0.0 mm
11:58 AM 33.8°F1.0°C 33.1°F0.6°C 97% 3.0 mph SW4.8 kmh SW 4.5 mph7.2 kmh 25.04 in848.0 mb 0.00 in0.0 mm 0.00 in/hr0.0 mm/hr 0.00 in0.0 mm
12:03 PM 33.8°F1.0°C 33.1°F0.6°C 97% 3.0 mph SSW4.8 kmh SSW 5.4 mph8.7 kmh 25.04 in848.0 mb 0.00 in0.0 mm 0.00 in/hr0.0 mm/hr 0.00 in0.0 mm
12:08 PM 33.8°F1.0°C 33.1°F0.6°C 97% 3.0 mph SSW4.8 kmh SSW 5.4 mph8.7 kmh 25.04 in848.0 mb 0.00 in0.0 mm 0.00 in/hr0.0 mm/hr 0.00 in0.0 mm
12:13 PM 33.8°F1.0°C 33.1°F0.6°C 97% 2.0 mph S3.2 kmh S 3.1 mph5.0 kmh 25.01 in846.9 mb 0.00 in0.0 mm 0.00 in/hr0.0 mm/hr 0.00 in0.0 mm
12:18 PM 33.8°F1.0°C 33.1°F0.6°C 97% Calm Calm 2.7 mph4.3 kmh 25.01 in846.9 mb 0.00 in0.0 mm 0.00 in/hr0.0 mm/hr 0.00 in0.0 mm
12:23 PM 33.6°F0.9°C 32.9°F0.5°C 97% Calm Calm -- 25.01 in846.9 mb 0.00 in0.0 mm 0.00 in/hr0.0 mm/hr 0.00 in0.0 mm
12:28 PM 33.4°F0.8°C 32.7°F0.4°C 97% Calm Calm 2.7 mph4.3 kmh 25.01 in846.9 mb 0.00 in0.0 mm 0.00 in/hr0.0 mm/hr 0.00 in0.0 mm
12:33 PM 33.4°F0.8°C 32.7°F0.4°C 97% Calm Calm -- 25.01 in846.9 mb 0.00 in0.0 mm 0.00 in/hr0.0 mm/hr 0.00 in0.0 mm
12:38 PM 33.6°F0.9°C 32.9°F0.5°C 97% Calm Calm 3.1 mph5.0 kmh 25.01 in846.9 mb 0.00 in0.0 mm 0.00 in/hr0.0 mm/hr 0.00 in0.0 mm
12:43 PM 33.6°F0.9°C 32.9°F0.5°C 97% 1.0 mph S1.6 kmh S 3.6 mph5.8 kmh 24.98 in845.9 mb 0.00 in0.0 mm 0.00 in/hr0.0 mm/hr 0.00 in0.0 mm
12:48 PM 33.6°F0.9°C 32.9°F0.5°C 97% 2.0 mph S3.2 kmh S 4.9 mph7.9 kmh 24.98 in845.9 mb 0.00 in0.0 mm 0.00 in/hr0.0 mm/hr 0.00 in0.0 mm
12:53 PM 33.8°F1.0°C 33.1°F0.6°C 97% 4.0 mph SW6.4 kmh SW 5.4 mph8.7 kmh 24.98 in845.9 mb 0.00 in0.0 mm 0.00 in/hr0.0 mm/hr 0.00 in0.0 mm
12:58 PM 33.8°F1.0°C 33.1°F0.6°C 97% 4.0 mph SW6.4 kmh SW 5.4 mph8.7 kmh 24.98 in845.9 mb 0.00 in0.0 mm 0.00 in/hr0.0 mm/hr 0.00 in0.0 mm
01:03 PM 33.8°F1.0°C 33.1°F0.6°C 97% 4.0 mph SW6.4 kmh SW 6.9 mph11.1 kmh 24.98 in845.9 mb 0.00 in0.0 mm 0.00 in/hr0.0 mm/hr 0.00 in0.0 mm
01:08 PM 33.8°F1.0°C 33.1°F0.6°C 97% 5.0 mph SW8.0 kmh SW 6.7 mph10.8 kmh 24.98 in845.9 mb 0.00 in0.0 mm 0.00 in/hr0.0 mm/hr 0.00 in0.0 mm
01:13 PM 34.0°F1.1°C 33.3°F0.7°C 97% 4.0 mph WSW6.4 kmh WSW 5.8 mph9.3 kmh 24.98 in845.9 mb 0.00 in0.0 mm 0.00 in/hr0.0 mm/hr 0.00 in0.0 mm
01:18 PM 33.8°F1.0°C 33.1°F0.6°C 97% 3.0 mph WSW4.8 kmh WSW 4.9 mph7.9 kmh 24.98 in845.9 mb 0.00 in0.0 mm 0.00 in/hr0.0 mm/hr 0.00 in0.0 mm
01:23 PM 34.0°F1.1°C 33.3°F0.7°C 97% 3.0 mph WSW4.8 kmh WSW 4.0 mph6.4 kmh 24.98 in845.9 mb 0.00 in0.0 mm 0.00 in/hr0.0 mm/hr 0.00 in0.0 mm
01:28 PM 34.0°F1.1°C 33.3°F0.7°C 97% 3.0 mph WSW4.8 kmh WSW 4.0 mph6.4 kmh 24.98 in845.9 mb 0.00 in0.0 mm 0.00 in/hr0.0 mm/hr 0.00 in0.0 mm
01:33 PM 34.0°F1.1°C 33.3°F0.7°C 97% 3.0 mph WSW4.8 kmh WSW 4.9 mph7.9 kmh 24.98 in845.9 mb 0.00 in0.0 mm 0.00 in/hr0.0 mm/hr 0.00 in0.0 mm
01:38 PM 34.0°F1.1°C 33.3°F0.7°C 97% 3.0 mph WSW4.8 kmh WSW 5.4 mph8.7 kmh 24.98 in845.9 mb 0.00 in0.0 mm 0.00 in/hr0.0 mm/hr 0.00 in0.0 mm
01:43 PM 34.0°F1.1°C 33.3°F0.7°C 97% 3.0 mph WSW4.8 kmh WSW 5.8 mph9.3 kmh 24.98 in845.9 mb 0.00 in0.0 mm 0.00 in/hr0.0 mm/hr 0.00 in0.0 mm
01:48 PM 34.0°F1.1°C 33.3°F0.7°C 97% 4.0 mph WSW6.4 kmh WSW 5.4 mph8.7 kmh 24.98 in845.9 mb 0.00 in0.0 mm 0.00 in/hr0.0 mm/hr 0.00 in0.0 mm
01:53 PM 33.8°F1.0°C 33.1°F0.6°C 97% 4.0 mph WSW6.4 kmh WSW 5.4 mph8.7 kmh 24.98 in845.9 mb 0.00 in0.0 mm 0.00 in/hr0.0 mm/hr 0.00 in0.0 mm
01:58 PM 33.8°F1.0°C 33.1°F0.6°C 97% 3.0 mph WSW4.8 kmh WSW 4.0 mph6.4 kmh 24.98 in845.9 mb 0.00 in0.0 mm 0.00 in/hr0.0 mm/hr 0.00 in0.0 mm
02:03 PM 33.8°F1.0°C 33.1°F0.6°C 97% 2.0 mph WSW3.2 kmh WSW 4.0 mph6.4 kmh 24.98 in845.9 mb 0.00 in0.0 mm 0.00 in/hr0.0 mm/hr 0.00 in0.0 mm
02:08 PM 34.0°F1.1°C 33.3°F0.7°C 97% 2.0 mph WSW3.2 kmh WSW 3.6 mph5.8 kmh 24.98 in845.9 mb 0.00 in0.0 mm 0.00 in/hr0.0 mm/hr 0.00 in0.0 mm
02:13 PM 34.0°F1.1°C 33.3°F0.7°C 97% 1.0 mph WSW1.6 kmh WSW 4.0 mph6.4 kmh 24.98 in845.9 mb 0.00 in0.0 mm 0.00 in/hr0.0 mm/hr 0.00 in0.0 mm
02:18 PM 34.0°F1.1°C 33.3°F0.7°C 97% 1.0 mph WSW1.6 kmh WSW 3.6 mph5.8 kmh 24.98 in845.9 mb 0.00 in0.0 mm 0.00 in/hr0.0 mm/hr 0.00 in0.0 mm
02:23 PM 34.0°F1.1°C 33.3°F0.7°C 97% Calm Calm -- 24.98 in845.9 mb 0.00 in0.0 mm 0.00 in/hr0.0 mm/hr 0.00 in0.0 mm
02:28 PM 34.0°F1.1°C 33.3°F0.7°C 97% Calm Calm 3.6 mph5.8 kmh 24.95 in844.9 mb 0.08 in2.0 mm 0.96 in/hr24.4 mm/hr 0.08 in2.0 mm
02:33 PM 34.2°F1.2°C 33.4°F0.8°C 97% Calm Calm 3.6 mph5.8 kmh 24.95 in844.9 mb 0.08 in2.0 mm 0.00 in/hr0.0 mm/hr 0.08 in2.0 mm
02:38 PM 34.0°F1.1°C 33.3°F0.7°C 97% 1.0 mph WSW1.6 kmh WSW 3.6 mph5.8 kmh 24.95 in844.9 mb 0.08 in2.0 mm 0.00 in/hr0.0 mm/hr 0.08 in2.0 mm
02:44 PM 34.0°F1.1°C 33.3°F0.7°C 97% 2.0 mph WSW3.2 kmh WSW 4.0 mph6.4 kmh 24.95 in844.9 mb 0.08 in2.0 mm 0.00 in/hr0.0 mm/hr 0.08 in2.0 mm
02:49 PM 34.2°F1.2°C 33.4°F0.8°C 97% 3.0 mph WSW4.8 kmh WSW 4.5 mph7.2 kmh 24.95 in844.9 mb 0.08 in2.0 mm 0.00 in/hr0.0 mm/hr 0.08 in2.0 mm
02:54 PM 34.0°F1.1°C 33.3°F0.7°C 97% 2.0 mph WSW3.2 kmh WSW 4.9 mph7.9 kmh 24.95 in844.9 mb 0.08 in2.0 mm 0.00 in/hr0.0 mm/hr 0.08 in2.0 mm
02:59 PM 34.0°F1.1°C 33.3°F0.7°C 97% 2.0 mph WSW3.2 kmh WSW 4.5 mph7.2 kmh 24.98 in845.9 mb 0.08 in2.0 mm 0.00 in/hr0.0 mm/hr 0.08 in2.0 mm
03:04 PM 34.0°F1.1°C 33.3°F0.7°C 97% 2.0 mph WSW3.2 kmh WSW 4.0 mph6.4 kmh 24.98 in845.9 mb 0.08 in2.0 mm 0.00 in/hr0.0 mm/hr 0.08 in2.0 mm
03:09 PM 34.0°F1.1°C 33.3°F0.7°C 97% 2.0 mph WSW3.2 kmh WSW 4.0 mph6.4 kmh 24.98 in845.9 mb 0.08 in2.0 mm 0.00 in/hr0.0 mm/hr 0.08 in2.0 mm
03:14 PM 34.2°F1.2°C 33.1°F0.6°C 96% 1.0 mph WSW1.6 kmh WSW 2.7 mph4.3 kmh 24.95 in844.9 mb 0.08 in2.0 mm 0.00 in/hr0.0 mm/hr 0.08 in2.0 mm
03:19 PM 34.2°F1.2°C 33.1°F0.6°C 96% Calm Calm -- 24.95 in844.9 mb 0.08 in2.0 mm 0.00 in/hr0.0 mm/hr 0.08 in2.0 mm
03:24 PM 34.0°F1.1°C 32.9°F0.5°C 96% Calm Calm 3.1 mph5.0 kmh 24.95 in844.9 mb 0.08 in2.0 mm 0.00 in/hr0.0 mm/hr 0.08 in2.0 mm
03:29 PM 34.3°F1.3°C 33.3°F0.7°C 96% Calm Calm 2.7 mph4.3 kmh 24.95 in844.9 mb 0.00 in0.0 mm 0.00 in/hr0.0 mm/hr 0.08 in2.0 mm
03:34 PM 34.3°F1.3°C 33.3°F0.7°C 96% Calm Calm 2.7 mph4.3 kmh 24.95 in844.9 mb 0.00 in0.0 mm 0.00 in/hr0.0 mm/hr 0.08 in2.0 mm
03:39 PM 34.3°F1.3°C 33.3°F0.7°C 96% Calm Calm 3.1 mph5.0 kmh 24.95 in844.9 mb 0.00 in0.0 mm 0.00 in/hr0.0 mm/hr 0.08 in2.0 mm
03:44 PM 34.5°F1.4°C 33.4°F0.8°C 96% Calm Calm 3.1 mph5.0 kmh 24.95 in844.9 mb 0.00 in0.0 mm 0.00 in/hr0.0 mm/hr 0.08 in2.0 mm
03:49 PM 34.5°F1.4°C 33.4°F0.8°C 96% Calm Calm 2.7 mph4.3 kmh 24.95 in844.9 mb 0.00 in0.0 mm 0.00 in/hr0.0 mm/hr 0.08 in2.0 mm
03:54 PM 34.3°F1.3°C 33.3°F0.7°C 96% Calm Calm -- 24.95 in844.9 mb 0.00 in0.0 mm 0.00 in/hr0.0 mm/hr 0.08 in2.0 mm
03:59 PM 34.3°F1.3°C 33.3°F0.7°C 96% Calm Calm -- 24.95 in844.9 mb 0.00 in0.0 mm 0.00 in/hr0.0 mm/hr 0.08 in2.0 mm
04:04 PM 34.3°F1.3°C 33.3°F0.7°C 96% Calm Calm 3.1 mph5.0 kmh 24.95 in844.9 mb 0.00 in0.0 mm 0.00 in/hr0.0 mm/hr 0.08 in2.0 mm
04:09 PM 34.5°F1.4°C 33.4°F0.8°C 96% 2.0 mph WSW3.2 kmh WSW 4.9 mph7.9 kmh 24.95 in844.9 mb 0.00 in0.0 mm 0.00 in/hr0.0 mm/hr 0.08 in2.0 mm
04:14 PM 34.5°F1.4°C 33.4°F0.8°C 96% 2.0 mph WSW3.2 kmh WSW 4.5 mph7.2 kmh 24.95 in844.9 mb 0.00 in0.0 mm 0.00 in/hr0.0 mm/hr 0.08 in2.0 mm
04:19 PM 34.3°F1.3°C 33.3°F0.7°C 96% 2.0 mph NW3.2 kmh NW 5.8 mph9.3 kmh 24.95 in844.9 mb 0.00 in0.0 mm 0.00 in/hr0.0 mm/hr 0.08 in2.0 mm
04:24 PM 34.3°F1.3°C 33.3°F0.7°C 96% 2.0 mph N3.2 kmh N 4.0 mph6.4 kmh 24.95 in844.9 mb 0.00 in0.0 mm 0.00 in/hr0.0 mm/hr 0.08 in2.0 mm
04:29 PM 34.3°F1.3°C 33.3°F0.7°C 96% 1.0 mph NNE1.6 kmh NNE 3.1 mph5.0 kmh 24.95 in844.9 mb 0.00 in0.0 mm 0.00 in/hr0.0 mm/hr 0.08 in2.0 mm
04:34 PM 34.3°F1.3°C 33.1°F0.6°C 95% Calm Calm 2.7 mph4.3 kmh 24.95 in844.9 mb 0.00 in0.0 mm 0.00 in/hr0.0 mm/hr 0.08 in2.0 mm
04:39 PM 34.3°F1.3°C 33.1°F0.6°C 95% Calm Calm -- 24.95 in844.9 mb 0.00 in0.0 mm 0.00 in/hr0.0 mm/hr 0.08 in2.0 mm
04:44 PM 34.3°F1.3°C 33.1°F0.6°C 95% Calm Calm 3.1 mph5.0 kmh 24.98 in845.9 mb 0.00 in0.0 mm 0.00 in/hr0.0 mm/hr 0.08 in2.0 mm
04:49 PM 34.5°F1.4°C 33.3°F0.7°C 95% 1.0 mph NNE1.6 kmh NNE 5.4 mph8.7 kmh 24.98 in845.9 mb 0.00 in0.0 mm 0.00 in/hr0.0 mm/hr 0.08 in2.0 mm
04:54 PM 34.5°F1.4°C 33.3°F0.7°C 95% 3.0 mph NNE4.8 kmh NNE 4.9 mph7.9 kmh 24.98 in845.9 mb 0.00 in0.0 mm 0.00 in/hr0.0 mm/hr 0.08 in2.0 mm
04:59 PM 34.5°F1.4°C 33.3°F0.7°C 95% 4.0 mph NNE6.4 kmh NNE 6.7 mph10.8 kmh 24.95 in844.9 mb 0.00 in0.0 mm 0.00 in/hr0.0 mm/hr 0.08 in2.0 mm
05:04 PM 34.5°F1.4°C 33.3°F0.7°C 95% 4.0 mph NE6.4 kmh NE 6.3 mph10.1 kmh 24.95 in844.9 mb 0.00 in0.0 mm 0.00 in/hr0.0 mm/hr 0.08 in2.0 mm
05:09 PM 34.5°F1.4°C 33.3°F0.7°C 95% 4.0 mph NE6.4 kmh NE 6.7 mph10.8 kmh 24.95 in844.9 mb 0.00 in0.0 mm 0.00 in/hr0.0 mm/hr 0.08 in2.0 mm
05:14 PM 34.3°F1.3°C 33.1°F0.6°C 95% 4.0 mph NE6.4 kmh NE 6.3 mph10.1 kmh 24.95 in844.9 mb 0.00 in0.0 mm 0.00 in/hr0.0 mm/hr 0.08 in2.0 mm
05:19 PM 34.3°F1.3°C 33.1°F0.6°C 95% 4.0 mph NE6.4 kmh NE 6.3 mph10.1 kmh 24.95 in844.9 mb 0.00 in0.0 mm 0.00 in/hr0.0 mm/hr 0.08 in2.0 mm
05:24 PM 34.5°F1.4°C 33.3°F0.7°C 95% 4.0 mph NE6.4 kmh NE 6.7 mph10.8 kmh 24.95 in844.9 mb 0.00 in0.0 mm 0.00 in/hr0.0 mm/hr 0.08 in2.0 mm
05:29 PM 34.5°F1.4°C 33.3°F0.7°C 95% 5.0 mph NE8.0 kmh NE 9.2 mph14.8 kmh 24.95 in844.9 mb 0.00 in0.0 mm 0.00 in/hr0.0 mm/hr 0.08 in2.0 mm
05:34 PM 34.5°F1.4°C 33.3°F0.7°C 95% 4.0 mph NE6.4 kmh NE 6.3 mph10.1 kmh 24.95 in844.9 mb 0.00 in0.0 mm 0.00 in/hr0.0 mm/hr 0.08 in2.0 mm
05:39 PM 34.5°F1.4°C 33.3°F0.7°C 95% 3.0 mph NE4.8 kmh NE 6.3 mph10.1 kmh 24.95 in844.9 mb 0.00 in0.0 mm 0.00 in/hr0.0 mm/hr 0.08 in2.0 mm
05:44 PM 34.7°F1.5°C 33.4°F0.8°C 95% 3.0 mph NE4.8 kmh NE 5.4 mph8.7 kmh 24.95 in844.9 mb 0.00 in0.0 mm 0.00 in/hr0.0 mm/hr 0.08 in2.0 mm
05:49 PM 34.7°F1.5°C 33.1°F0.6°C 94% 2.0 mph NE3.2 kmh NE 4.9 mph7.9 kmh 24.95 in844.9 mb 0.00 in0.0 mm 0.00 in/hr0.0 mm/hr 0.08 in2.0 mm
05:54 PM 34.7°F1.5°C 33.1°F0.6°C 94% Calm Calm -- 24.95 in844.9 mb 0.00 in0.0 mm 0.00 in/hr0.0 mm/hr 0.08 in2.0 mm
05:59 PM 34.7°F1.5°C 33.1°F0.6°C 94% Calm Calm -- 24.95 in844.9 mb 0.00 in0.0 mm 0.00 in/hr0.0 mm/hr 0.08 in2.0 mm
06:04 PM 34.9°F1.6°C 33.3°F0.7°C 94% Calm Calm -- 24.95 in844.9 mb 0.00 in0.0 mm 0.00 in/hr0.0 mm/hr 0.08 in2.0 mm
06:09 PM 34.9°F1.6°C 33.3°F0.7°C 94% Calm Calm -- 24.95 in844.9 mb 0.00 in0.0 mm 0.00 in/hr0.0 mm/hr 0.08 in2.0 mm
06:14 PM 34.9°F1.6°C 33.3°F0.7°C 94% Calm Calm -- 24.95 in844.9 mb 0.00 in0.0 mm 0.00 in/hr0.0 mm/hr 0.08 in2.0 mm
06:19 PM 35.1°F1.7°C 33.4°F0.8°C 94% Calm Calm 3.6 mph5.8 kmh 24.95 in844.9 mb 0.00 in0.0 mm 0.00 in/hr0.0 mm/hr 0.08 in2.0 mm
06:24 PM 35.1°F1.7°C 33.4°F0.8°C 94% 1.0 mph ENE1.6 kmh ENE 3.6 mph5.8 kmh 24.95 in844.9 mb 0.00 in0.0 mm 0.00 in/hr0.0 mm/hr 0.08 in2.0 mm
06:29 PM 35.1°F1.7°C 33.4°F0.8°C 94% 1.0 mph ENE1.6 kmh ENE 3.1 mph5.0 kmh 24.95 in844.9 mb 0.00 in0.0 mm 0.00 in/hr0.0 mm/hr 0.08 in2.0 mm
06:34 PM 35.1°F1.7°C 33.4°F0.8°C 94% 2.0 mph ENE3.2 kmh ENE 4.0 mph6.4 kmh 24.95 in844.9 mb 0.00 in0.0 mm 0.00 in/hr0.0 mm/hr 0.08 in2.0 mm
06:39 PM 35.1°F1.7°C 33.4°F0.8°C 94% 3.0 mph ENE4.8 kmh ENE 4.5 mph7.2 kmh 24.95 in844.9 mb 0.00 in0.0 mm 0.00 in/hr0.0 mm/hr 0.08 in2.0 mm
06:44 PM 35.2°F1.8°C 33.6°F0.9°C 94% 2.0 mph ENE3.2 kmh ENE 3.6 mph5.8 kmh 24.95 in844.9 mb 0.00 in0.0 mm 0.00 in/hr0.0 mm/hr 0.08 in2.0 mm
06:49 PM 35.1°F1.7°C 33.4°F0.8°C 94% Calm Calm -- 24.95 in844.9 mb 0.00 in0.0 mm 0.00 in/hr0.0 mm/hr 0.08 in2.0 mm
06:54 PM 35.1°F1.7°C 33.4°F0.8°C 94% Calm Calm -- 24.95 in844.9 mb 0.00 in0.0 mm 0.00 in/hr0.0 mm/hr 0.08 in2.0 mm
06:59 PM 35.1°F1.7°C 33.4°F0.8°C 94% Calm Calm -- 24.95 in844.9 mb 0.00 in0.0 mm 0.00 in/hr0.0 mm/hr 0.08 in2.0 mm
07:04 PM 35.1°F1.7°C 33.4°F0.8°C 94% Calm Calm -- 24.95 in844.9 mb 0.00 in0.0 mm 0.00 in/hr0.0 mm/hr 0.08 in2.0 mm
07:09 PM 35.2°F1.8°C 33.6°F0.9°C 94% Calm Calm -- 24.95 in844.9 mb 0.00 in0.0 mm 0.00 in/hr0.0 mm/hr 0.08 in2.0 mm
07:14 PM 35.2°F1.8°C 33.6°F0.9°C 94% Calm Calm 3.6 mph5.8 kmh 24.95 in844.9 mb 0.00 in0.0 mm 0.00 in/hr0.0 mm/hr 0.08 in2.0 mm
07:19 PM 35.1°F1.7°C 33.4°F0.8°C 94% 1.0 mph ENE1.6 kmh ENE 4.0 mph6.4 kmh 24.95 in844.9 mb 0.00 in0.0 mm 0.00 in/hr0.0 mm/hr 0.08 in2.0 mm
07:24 PM 35.1°F1.7°C 33.4°F0.8°C 94% 1.0 mph ENE1.6 kmh ENE 3.1 mph5.0 kmh 24.95 in844.9 mb 0.00 in0.0 mm 0.00 in/hr0.0 mm/hr 0.08 in2.0 mm
07:29 PM 35.1°F1.7°C 33.4°F0.8°C 94% Calm Calm 2.7 mph4.3 kmh 24.95 in844.9 mb 0.00 in0.0 mm 0.00 in/hr0.0 mm/hr 0.08 in2.0 mm
07:34 PM 35.1°F1.7°C 33.4°F0.8°C 94% Calm Calm -- 24.95 in844.9 mb 0.00 in0.0 mm 0.00 in/hr0.0 mm/hr 0.08 in2.0 mm
07:39 PM 35.1°F1.7°C 33.4°F0.8°C 94% Calm Calm 3.1 mph5.0 kmh 24.95 in844.9 mb 0.00 in0.0 mm 0.00 in/hr0.0 mm/hr 0.08 in2.0 mm
07:44 PM 35.2°F1.8°C 33.6°F0.9°C 94% 1.0 mph ENE1.6 kmh ENE 4.0 mph6.4 kmh 24.95 in844.9 mb 0.00 in0.0 mm 0.00 in/hr0.0 mm/hr 0.08 in2.0 mm
07:49 PM 35.2°F1.8°C 33.6°F0.9°C 94% 1.0 mph ENE1.6 kmh ENE 3.1 mph5.0 kmh 24.95 in844.9 mb 0.00 in0.0 mm 0.00 in/hr0.0 mm/hr 0.08 in2.0 mm
07:54 PM 35.2°F1.8°C 33.6°F0.9°C 94% 1.0 mph ENE1.6 kmh ENE 4.9 mph7.9 kmh 24.95 in844.9 mb 0.00 in0.0 mm 0.00 in/hr0.0 mm/hr 0.08 in2.0 mm
07:59 PM 35.2°F1.8°C 33.6°F0.9°C 94% 2.0 mph E3.2 kmh E 5.4 mph8.7 kmh 24.95 in844.9 mb 0.00 in0.0 mm 0.00 in/hr0.0 mm/hr 0.08 in2.0 mm
08:04 PM 35.2°F1.8°C 33.6°F0.9°C 94% 3.0 mph SE4.8 kmh SE 4.9 mph7.9 kmh 24.95 in844.9 mb 0.00 in0.0 mm 0.00 in/hr0.0 mm/hr 0.08 in2.0 mm
08:09 PM 35.2°F1.8°C 33.6°F0.9°C 94% 4.0 mph SE6.4 kmh SE 6.7 mph10.8 kmh 24.95 in844.9 mb 0.00 in0.0 mm 0.00 in/hr0.0 mm/hr 0.08 in2.0 mm
08:14 PM 35.1°F1.7°C 33.8°F1.0°C 95% 3.0 mph SE4.8 kmh SE 6.3 mph10.1 kmh 24.95 in844.9 mb 0.00 in0.0 mm 0.00 in/hr0.0 mm/hr 0.08 in2.0 mm
08:19 PM 35.1°F1.7°C 33.8°F1.0°C 95% 2.0 mph SSE3.2 kmh SSE 5.8 mph9.3 kmh 24.95 in844.9 mb 0.00 in0.0 mm 0.00 in/hr0.0 mm/hr 0.08 in2.0 mm
08:24 PM 35.1°F1.7°C 33.8°F1.0°C 95% 1.0 mph SSE1.6 kmh SSE 3.1 mph5.0 kmh 24.95 in844.9 mb 0.00 in0.0 mm 0.00 in/hr0.0 mm/hr 0.08 in2.0 mm
08:29 PM 34.9°F1.6°C 33.6°F0.9°C 95% 1.0 mph SSE1.6 kmh SSE 4.5 mph7.2 kmh 24.92 in843.9 mb 0.00 in0.0 mm 0.00 in/hr0.0 mm/hr 0.08 in2.0 mm
08:34 PM 34.9°F1.6°C 33.6°F0.9°C 95% 2.0 mph S3.2 kmh S 6.3 mph10.1 kmh 24.92 in843.9 mb 0.00 in0.0 mm 0.00 in/hr0.0 mm/hr 0.08 in2.0 mm
08:39 PM 35.1°F1.7°C 33.4°F0.8°C 94% 4.0 mph S6.4 kmh S 5.8 mph9.3 kmh 24.92 in843.9 mb 0.00 in0.0 mm 0.00 in/hr0.0 mm/hr 0.08 in2.0 mm
08:44 PM 35.1°F1.7°C 33.4°F0.8°C 94% 4.0 mph SSW6.4 kmh SSW 6.7 mph10.8 kmh 24.92 in843.9 mb 0.00 in0.0 mm 0.00 in/hr0.0 mm/hr 0.08 in2.0 mm
08:49 PM 35.2°F1.8°C 33.6°F0.9°C 94% 4.0 mph SSW6.4 kmh SSW 5.8 mph9.3 kmh 24.92 in843.9 mb 0.00 in0.0 mm 0.00 in/hr0.0 mm/hr 0.08 in2.0 mm
08:54 PM 35.2°F1.8°C 33.4°F0.8°C 93% 3.0 mph SSW4.8 kmh SSW 4.9 mph7.9 kmh 24.92 in843.9 mb 0.00 in0.0 mm 0.00 in/hr0.0 mm/hr 0.08 in2.0 mm
08:59 PM 35.1°F1.7°C 33.3°F0.7°C 93% 2.0 mph SSW3.2 kmh SSW 4.5 mph7.2 kmh 24.92 in843.9 mb 0.00 in0.0 mm 0.00 in/hr0.0 mm/hr 0.08 in2.0 mm
09:04 PM 35.1°F1.7°C 33.3°F0.7°C 93% 2.0 mph SSW3.2 kmh SSW 4.0 mph6.4 kmh 24.92 in843.9 mb 0.00 in0.0 mm 0.00 in/hr0.0 mm/hr 0.08 in2.0 mm
09:09 PM 34.9°F1.6°C 33.1°F0.6°C 93% 1.0 mph SSW1.6 kmh SSW 4.5 mph7.2 kmh 24.92 in843.9 mb 0.00 in0.0 mm 0.00 in/hr0.0 mm/hr 0.08 in2.0 mm
09:14 PM 34.9°F1.6°C 33.1°F0.6°C 93% 1.0 mph SSW1.6 kmh SSW 4.5 mph7.2 kmh 24.92 in843.9 mb 0.00 in0.0 mm 0.00 in/hr0.0 mm/hr 0.08 in2.0 mm
09:20 PM 34.7°F1.5°C 33.1°F0.6°C 94% 2.0 mph SW3.2 kmh SW 4.5 mph7.2 kmh 24.92 in843.9 mb 0.00 in0.0 mm 0.00 in/hr0.0 mm/hr 0.08 in2.0 mm
09:25 PM 34.7°F1.5°C 33.1°F0.6°C 94% 3.0 mph SW4.8 kmh SW 4.5 mph7.2 kmh 24.92 in843.9 mb 0.00 in0.0 mm 0.00 in/hr0.0 mm/hr 0.08 in2.0 mm
09:30 PM 34.5°F1.4°C 33.3°F0.7°C 95% 1.0 mph SW1.6 kmh SW 3.6 mph5.8 kmh 24.92 in843.9 mb 0.00 in0.0 mm 0.00 in/hr0.0 mm/hr 0.08 in2.0 mm
09:35 PM 34.5°F1.4°C 33.3°F0.7°C 95% 1.0 mph SW1.6 kmh SW 4.0 mph6.4 kmh 24.92 in843.9 mb 0.00 in0.0 mm 0.00 in/hr0.0 mm/hr 0.08 in2.0 mm
09:40 PM 34.5°F1.4°C 33.3°F0.7°C 95% 1.0 mph SW1.6 kmh SW 4.0 mph6.4 kmh 24.92 in843.9 mb 0.00 in0.0 mm 0.00 in/hr0.0 mm/hr 0.08 in2.0 mm
09:45 PM 34.7°F1.5°C 33.4°F0.8°C 95% 1.0 mph SW1.6 kmh SW 3.6 mph5.8 kmh 24.92 in843.9 mb 0.00 in0.0 mm 0.00 in/hr0.0 mm/hr 0.08 in2.0 mm
09:50 PM 34.7°F1.5°C 33.4°F0.8°C 95% 2.0 mph SW3.2 kmh SW 4.9 mph7.9 kmh 24.92 in843.9 mb 0.00 in0.0 mm 0.00 in/hr0.0 mm/hr 0.08 in2.0 mm
09:55 PM 34.7°F1.5°C 33.4°F0.8°C 95% 2.0 mph SW3.2 kmh SW 4.5 mph7.2 kmh 24.92 in843.9 mb 0.00 in0.0 mm 0.00 in/hr0.0 mm/hr 0.08 in2.0 mm
10:00 PM 34.7°F1.5°C 33.4°F0.8°C 95% 2.0 mph SW3.2 kmh SW 4.5 mph7.2 kmh 24.92 in843.9 mb 0.00 in0.0 mm 0.00 in/hr0.0 mm/hr 0.08 in2.0 mm
10:05 PM 34.9°F1.6°C 33.6°F0.9°C 95% 1.0 mph SW1.6 kmh SW 4.0 mph6.4 kmh 24.92 in843.9 mb 0.00 in0.0 mm 0.00 in/hr0.0 mm/hr 0.08 in2.0 mm
10:10 PM 34.9°F1.6°C 33.6°F0.9°C 95% 2.0 mph WSW3.2 kmh WSW 5.4 mph8.7 kmh 24.92 in843.9 mb 0.00 in0.0 mm 0.00 in/hr0.0 mm/hr 0.08 in2.0 mm
10:15 PM 34.7°F1.5°C 33.4°F0.8°C 95% 3.0 mph WSW4.8 kmh WSW 4.5 mph7.2 kmh 24.92 in843.9 mb 0.00 in0.0 mm 0.00 in/hr0.0 mm/hr 0.08 in2.0 mm
10:20 PM 34.7°F1.5°C 33.4°F0.8°C 95% 2.0 mph WSW3.2 kmh WSW 4.0 mph6.4 kmh 24.92 in843.9 mb 0.00 in0.0 mm 0.00 in/hr0.0 mm/hr 0.08 in2.0 mm
10:25 PM 34.9°F1.6°C 33.6°F0.9°C 95% 2.0 mph WSW3.2 kmh WSW 4.9 mph7.9 kmh 24.92 in843.9 mb 0.00 in0.0 mm 0.00 in/hr0.0 mm/hr 0.08 in2.0 mm
10:30 PM 34.9°F1.6°C 33.6°F0.9°C 95% 2.0 mph WSW3.2 kmh WSW 4.0 mph6.4 kmh 24.92 in843.9 mb 0.00 in0.0 mm 0.00 in/hr0.0 mm/hr 0.08 in2.0 mm
10:35 PM 34.9°F1.6°C 33.6°F0.9°C 95% 2.0 mph WSW3.2 kmh WSW 4.5 mph7.2 kmh 24.92 in843.9 mb 0.00 in0.0 mm 0.00 in/hr0.0 mm/hr 0.08 in2.0 mm
10:40 PM 34.9°F1.6°C 33.6°F0.9°C 95% 1.0 mph WSW1.6 kmh WSW 4.5 mph7.2 kmh 24.92 in843.9 mb 0.00 in0.0 mm 0.00 in/hr0.0 mm/hr 0.08 in2.0 mm
10:45 PM 35.1°F1.7°C 33.8°F1.0°C 95% 1.0 mph WSW1.6 kmh WSW 4.5 mph7.2 kmh 24.92 in843.9 mb 0.00 in0.0 mm 0.00 in/hr0.0 mm/hr 0.08 in2.0 mm
10:50 PM 35.1°F1.7°C 33.8°F1.0°C 95% 2.0 mph WSW3.2 kmh WSW 5.4 mph8.7 kmh 24.92 in843.9 mb 0.00 in0.0 mm 0.00 in/hr0.0 mm/hr 0.08 in2.0 mm
10:55 PM 35.1°F1.7°C 33.8°F1.0°C 95% 3.0 mph W4.8 kmh W 6.3 mph10.1 kmh 24.92 in843.9 mb 0.00 in0.0 mm 0.00 in/hr0.0 mm/hr 0.08 in2.0 mm
11:00 PM 35.1°F1.7°C 33.8°F1.0°C 95% 2.0 mph N3.2 kmh N 4.9 mph7.9 kmh 24.92 in843.9 mb 0.00 in0.0 mm 0.00 in/hr0.0 mm/hr 0.08 in2.0 mm
11:05 PM 35.2°F1.8°C 34.0°F1.1°C 95% 3.0 mph NE4.8 kmh NE 6.3 mph10.1 kmh 24.92 in843.9 mb 0.00 in0.0 mm 0.00 in/hr0.0 mm/hr 0.08 in2.0 mm
11:10 PM 35.2°F1.8°C 34.0°F1.1°C 95% 4.0 mph NE6.4 kmh NE 6.3 mph10.1 kmh 24.95 in844.9 mb 0.00 in0.0 mm 0.00 in/hr0.0 mm/hr 0.08 in2.0 mm
11:15 PM 35.4°F1.9°C 34.2°F1.2°C 95% 4.0 mph N6.4 kmh N 6.3 mph10.1 kmh 24.95 in844.9 mb 0.00 in0.0 mm 0.00 in/hr0.0 mm/hr 0.08 in2.0 mm
11:20 PM 35.4°F1.9°C 34.2°F1.2°C 95% 3.0 mph NNE4.8 kmh NNE 5.8 mph9.3 kmh 24.95 in844.9 mb 0.00 in0.0 mm 0.00 in/hr0.0 mm/hr 0.08 in2.0 mm
11:25 PM 35.2°F1.8°C 34.0°F1.1°C 95% 3.0 mph NNE4.8 kmh NNE 5.4 mph8.7 kmh 24.95 in844.9 mb 0.00 in0.0 mm 0.00 in/hr0.0 mm/hr 0.08 in2.0 mm
11:30 PM 35.2°F1.8°C 33.6°F0.9°C 94% 3.0 mph NE4.8 kmh NE 6.7 mph10.8 kmh 24.95 in844.9 mb 0.00 in0.0 mm 0.00 in/hr0.0 mm/hr 0.08 in2.0 mm
11:35 PM 35.2°F1.8°C 33.6°F0.9°C 94% 2.0 mph NNE3.2 kmh NNE 4.9 mph7.9 kmh 24.95 in844.9 mb 0.00 in0.0 mm 0.00 in/hr0.0 mm/hr 0.08 in2.0 mm
11:40 PM 35.2°F1.8°C 33.6°F0.9°C 94% 2.0 mph NNE3.2 kmh NNE 6.7 mph10.8 kmh 24.92 in843.9 mb 0.00 in0.0 mm 0.00 in/hr0.0 mm/hr 0.08 in2.0 mm
11:45 PM 35.2°F1.8°C 33.6°F0.9°C 94% 2.0 mph NNE3.2 kmh NNE 4.9 mph7.9 kmh 24.92 in843.9 mb 0.00 in0.0 mm 0.00 in/hr0.0 mm/hr 0.08 in2.0 mm
11:50 PM 35.2°F1.8°C 33.6°F0.9°C 94% 2.0 mph NNE3.2 kmh NNE 4.9 mph7.9 kmh 24.92 in843.9 mb 0.00 in0.0 mm 0.00 in/hr0.0 mm/hr 0.08 in2.0 mm
11:55 PM 35.1°F1.7°C 33.4°F0.8°C 94% 1.0 mph NNE1.6 kmh NNE 3.6 mph5.8 kmh 24.92 in843.9 mb 0.00 in0.0 mm 0.00 in/hr0.0 mm/hr 0.08 in2.0 mm